Etusivu
METAR-TAF:

METAR-TAF

Lentoasemat :

Guilin, Kiina

Leveyspiiri: 25-20N, Pituuspiiri: 110-18E, korkeus merenpinnasta: 166 m

Tämänhetkinen sää

Tämä raportti tehtiin 1 tunti ja 13 minuuttia sitten, kello 04.00 UTC
Tuuli 2 kn eri suunnista
Lämpötila 27°C
Kosteus 79%
Ilmanpaine 1012 hPa
Näkyvyys: 5000 m
Hajanaisia pilviä 4000 ft:n korkeudessa
Pilvistä 6600 ft:n korkeudessa
heikkoa sadetta, utua

METAR: ZGKL 210400Z VRB01MPS 5000 -RA BR SCT040 OVC066 27/23 Q1012 NOSIG

Aika: 13:13 (05:13 UTC)

Sääennuste

Tämä raportti tehtiin 9 tuntia ja 57 minuuttia sitten, kello 19.16 UTC
Ennuste voimassa 21. päivästä klo 00 UTC - 21. päivään klo 24 UTC
Tuuli 4 kn pohjoisesta/koillisesta
Näkyvyys: 6000 m
Hajanaisia pilviä 3600 ft:n korkeudessa
Hajanaisia pilviä 6000 ft:n korkeudessa

TAF: ZGKL 201916Z 2100/2124 03002MPS 6000 SCT036 SCT060 TX31/2108Z TN24/2123Z

Säähavainnot ja -ennusteet yli 4000 lentoasemalta (METAR- ja TAF-raportit).

Käytössä olevat sääasemat on merkitty karttaan keltaisilla ja punaisilla pisteillä.

Aseta hiiri pisteen päälle nähdäksesi sääaseman nimen.

Klikkaa sitten nähdäksesi säähavainnot ja -ennusteet.

Kartan vaihtaminen: klikkaa mustalla rastilla varustettuja vihreitä pisteitä, niin voit zoomata sisään; viivalla varustettua vihreää pistettä, niin voit zoomata ulos tai vihreitä nuolia, niin pääset viereisille kartoille.


METAR-TAF: